18  °C
Temperature
64  °F
Temperature
61  °F
 Dewpoint
16  °C
  Dewpoint
88  %
 Humidity
  Temperature
10  km/h
Wind Speed
5  kts
Wind Speed
6  mph
Wind Speed
0  m/s
Wind Speed
70°
East North
East

Wind Speed
Clear
Conditions
Pressure 1011.92 (hPa) - 29.88 (inHG)
Visibility 6.2 (mi) - 10.0 (km)

Sky Conditions
EDDK
Location Köln - Bonn 24,85 mi (38.62 km)
Metar :EDDK 092020Z 07005KT CAVOK 18/16 Q1012 NOSIG
Thu 9th July 21:20 pm

Nearest Airport
https://www.checkwx.com/weather/EDDK
  Metar Aviation API Data Provided by https://www.checkwx.com/ Original CSS/SVG/PHP scripts by weather34.com © 2015-2020